createdAt,value
2022-09-02T00:00:20.685Z,10.21
2022-09-02T00:03:27.001Z,10.13
2022-09-02T00:06:34.395Z,10.16
2022-09-02T00:09:40.813Z,10.19
2022-09-02T00:12:48.988Z,10.18
2022-09-02T00:15:55.065Z,10.17
2022-09-02T00:19:00.901Z,10.06
2022-09-02T00:22:07.541Z,9.90
2022-09-02T00:25:14.604Z,9.93
2022-09-02T00:28:25.915Z,9.97
2022-09-02T00:31:33.916Z,9.94
2022-09-02T00:34:39.479Z,9.89
2022-09-02T00:37:45.293Z,9.80
2022-09-02T00:40:54.188Z,9.85
2022-09-02T00:44:06.520Z,9.86
2022-09-02T00:47:12.246Z,9.81
2022-09-02T00:50:26.036Z,9.74
2022-09-02T00:53:33.813Z,9.70
2022-09-02T00:56:43.425Z,9.60
2022-09-02T01:00:13.919Z,9.50
2022-09-02T01:03:24.855Z,9.47
2022-09-02T01:06:33.632Z,9.43
2022-09-02T01:09:39.544Z,9.43
2022-09-02T01:12:45.836Z,9.44
2022-09-02T01:16:01.596Z,9.34
2022-09-02T01:19:23.205Z,9.34
2022-09-02T01:22:35.842Z,9.32
2022-09-02T01:25:41.607Z,9.31
2022-09-02T01:28:47.494Z,9.24
2022-09-02T01:31:56.152Z,9.27
2022-09-02T01:35:02.283Z,9.26
2022-09-02T01:38:12.189Z,9.19
2022-09-02T01:41:17.830Z,9.19
2022-09-02T01:44:25.281Z,9.17
2022-09-02T01:47:32.148Z,9.21
2022-09-02T01:50:45.604Z,9.25
2022-09-02T01:53:58.784Z,9.29
2022-09-02T01:57:04.832Z,9.27
2022-09-02T02:00:20.031Z,9.18
2022-09-02T02:03:26.197Z,9.12
2022-09-02T02:06:36.561Z,9.13
2022-09-02T02:09:46.427Z,9.05
2022-09-02T02:12:54.915Z,9.13
2022-09-02T02:16:09.398Z,9.03
2022-09-02T02:19:19.776Z,8.96
2022-09-02T02:22:27.436Z,8.97
2022-09-02T02:25:36.566Z,9.01
2022-09-02T02:28:42.461Z,8.97
2022-09-02T02:31:54.820Z,8.86
2022-09-02T02:35:04.622Z,8.85
2022-09-02T02:38:14.317Z,8.90
2022-09-02T02:41:24.396Z,8.92
2022-09-02T02:44:30.130Z,8.98
2022-09-02T02:47:35.766Z,8.94
2022-09-02T02:50:42.553Z,8.92
2022-09-02T02:53:59.000Z,8.93
2022-09-02T02:57:14.798Z,8.93
2022-09-02T03:00:27.287Z,8.85
2022-09-02T03:03:33.615Z,8.80
2022-09-02T03:06:40.149Z,8.72
2022-09-02T03:09:46.097Z,8.61
2022-09-02T03:12:54.539Z,8.60
2022-09-02T03:16:00.322Z,8.60
2022-09-02T03:19:08.694Z,8.61
2022-09-02T03:22:14.429Z,8.56
2022-09-02T03:25:23.886Z,8.47
2022-09-02T03:28:38.017Z,8.43
2022-09-02T03:31:46.321Z,8.38
2022-09-02T03:34:52.549Z,8.33
2022-09-02T03:37:59.663Z,8.34
2022-09-02T03:41:05.333Z,8.32
2022-09-02T03:44:16.775Z,8.38
2022-09-02T03:47:29.151Z,8.48
2022-09-02T03:50:42.318Z,8.54
2022-09-02T03:53:51.820Z,8.55
2022-09-02T03:56:57.548Z,8.64
2022-09-02T04:00:16.219Z,8.60
2022-09-02T04:03:25.228Z,8.64
2022-09-02T04:06:32.700Z,8.66
2022-09-02T04:09:46.458Z,8.66
2022-09-02T04:12:53.194Z,8.64
2022-09-02T04:16:11.291Z,8.62
2022-09-02T04:19:17.096Z,8.65
2022-09-02T04:22:28.556Z,8.71
2022-09-02T04:25:36.730Z,8.65
2022-09-02T04:28:43.113Z,8.62
2022-09-02T04:31:51.332Z,8.64
2022-09-02T04:34:57.099Z,8.63
2022-09-02T04:38:03.700Z,8.62
2022-09-02T04:41:12.424Z,8.65
2022-09-02T04:44:18.560Z,8.67
2022-09-02T04:47:29.119Z,8.68
2022-09-02T04:50:35.525Z,8.73
2022-09-02T04:53:42.712Z,8.81
2022-09-02T04:56:48.525Z,8.77
2022-09-02T04:59:55.158Z,8.83
2022-09-02T05:03:05.569Z,8.87
2022-09-02T05:06:17.372Z,9.20
2022-09-02T05:09:38.924Z,10.13
2022-09-02T05:12:46.312Z,11.21
2022-09-02T05:15:52.701Z,11.96
2022-09-02T05:19:14.678Z,12.72
2022-09-02T05:22:29.672Z,13.32
2022-09-02T05:25:40.510Z,13.92
2022-09-02T05:28:47.641Z,14.59
2022-09-02T05:31:53.908Z,15.38
2022-09-02T05:35:04.660Z,16.04
2022-09-02T05:38:12.219Z,16.74
2022-09-02T05:41:26.122Z,16.33
2022-09-02T05:44:36.146Z,16.60
2022-09-02T05:47:43.205Z,16.89
2022-09-02T05:50:57.625Z,17.02
2022-09-02T05:54:18.950Z,17.29
2022-09-02T05:57:27.424Z,17.49
2022-09-02T06:00:42.339Z,18.14
2022-09-02T06:03:50.695Z,18.15
2022-09-02T06:06:59.067Z,18.54
2022-09-02T06:10:17.423Z,18.70
2022-09-02T06:13:45.892Z,18.99
2022-09-02T06:16:54.296Z,19.42
2022-09-02T06:20:10.822Z,19.52
2022-09-02T06:23:22.392Z,19.73
2022-09-02T06:26:28.203Z,19.35
2022-09-02T06:29:35.244Z,19.48
2022-09-02T06:32:40.876Z,19.16
2022-09-02T06:35:49.757Z,18.58
2022-09-02T06:39:03.047Z,18.74
2022-09-02T06:42:11.668Z,19.45
2022-09-02T06:45:26.487Z,19.75
2022-09-02T06:48:34.362Z,20.30
2022-09-02T06:51:43.959Z,20.65
2022-09-02T06:54:55.695Z,20.67
2022-09-02T06:58:01.312Z,19.86
2022-09-02T07:01:29.147Z,19.70
2022-09-02T07:04:53.152Z,19.27
2022-09-02T07:08:02.087Z,19.39
2022-09-02T07:11:22.436Z,18.54
2022-09-02T07:14:30.880Z,19.10
2022-09-02T07:17:39.365Z,19.61
2022-09-02T07:20:50.635Z,19.59
2022-09-02T07:23:56.940Z,19.65
2022-09-02T07:27:06.108Z,20.26
2022-09-02T07:30:15.261Z,20.57
2022-09-02T07:33:24.077Z,20.48
2022-09-02T07:36:31.514Z,20.69
2022-09-02T07:39:38.460Z,19.96
2022-09-02T07:42:47.558Z,20.54
2022-09-02T07:45:57.518Z,20.83
2022-09-02T07:49:11.129Z,21.03
2022-09-02T07:52:17.188Z,21.34
2022-09-02T07:55:31.237Z,21.12
2022-09-02T07:58:40.958Z,20.83
2022-09-02T08:01:48.447Z,20.96
2022-09-02T08:04:55.716Z,21.27
2022-09-02T08:08:03.124Z,21.70
2022-09-02T08:11:09.489Z,21.74
2022-09-02T08:14:29.582Z,21.02
2022-09-02T08:17:35.943Z,20.95
2022-09-02T08:20:41.838Z,21.58
2022-09-02T08:23:50.420Z,21.99
2022-09-02T08:26:56.129Z,21.29
2022-09-02T08:30:10.526Z,21.75
2022-09-02T08:33:30.181Z,21.94
2022-09-02T08:36:48.944Z,21.30
2022-09-02T08:40:03.789Z,21.73
2022-09-02T08:43:38.560Z,21.53
2022-09-02T08:46:47.273Z,21.72
2022-09-02T08:50:00.873Z,21.34
2022-09-02T08:53:31.569Z,20.73
2022-09-02T08:56:41.033Z,20.36
2022-09-02T08:59:48.656Z,18.89
2022-09-02T09:03:23.063Z,18.63
2022-09-02T09:06:57.142Z,17.88
2022-09-02T09:10:28.681Z,17.35
2022-09-02T09:14:23.568Z,16.77
2022-09-02T09:17:40.548Z,16.69
2022-09-02T09:20:53.253Z,16.33
2022-09-02T09:24:24.631Z,16.24
2022-09-02T09:27:30.216Z,16.32
2022-09-02T09:30:35.838Z,15.99
2022-09-02T09:33:41.933Z,15.95
2022-09-02T09:36:57.145Z,15.98
2022-09-02T09:40:09.778Z,15.93
2022-09-02T09:43:18.229Z,15.86
2022-09-02T09:46:31.233Z,15.77
2022-09-02T09:49:37.045Z,15.78
2022-09-02T09:52:46.025Z,15.75
2022-09-02T09:56:01.892Z,15.98
2022-09-02T09:59:32.307Z,16.14
2022-09-02T10:02:39.367Z,16.05
2022-09-02T10:05:45.605Z,16.08
2022-09-02T10:09:01.580Z,15.90
2022-09-02T10:12:10.485Z,15.79
2022-09-02T10:15:22.865Z,15.68
2022-09-02T10:18:43.219Z,15.77
2022-09-02T10:22:39.497Z,15.74
2022-09-02T10:30:05.257Z,16.08
2022-09-02T10:33:39.537Z,16.73
2022-09-02T10:37:15.014Z,17.43
2022-09-02T10:40:39.123Z,18.21
2022-09-02T10:44:15.542Z,17.85
2022-09-02T10:47:39.191Z,17.77
2022-09-02T10:51:08.305Z,17.58
2022-09-02T10:54:48.611Z,17.75
2022-09-02T10:58:03.468Z,18.60
2022-09-02T11:01:27.285Z,19.07
2022-09-02T11:04:46.346Z,19.65
2022-09-02T11:08:04.610Z,19.38
2022-09-02T11:11:21.856Z,19.52
2022-09-02T11:14:47.557Z,20.12
2022-09-02T11:18:17.503Z,19.94
2022-09-02T11:21:46.718Z,19.46
2022-09-02T11:25:07.594Z,19.12
2022-09-02T11:28:36.322Z,18.42
2022-09-02T11:31:54.939Z,17.96
2022-09-02T11:35:13.189Z,17.42
2022-09-02T11:38:41.902Z,17.26
2022-09-02T11:42:09.698Z,17.41
2022-09-02T11:45:57.744Z,17.64
2022-09-02T11:49:49.111Z,17.80
2022-09-02T11:53:21.104Z,17.74
2022-09-02T11:56:39.983Z,17.66
2022-09-02T12:00:32.655Z,17.64
2022-09-02T12:03:58.666Z,17.70
2022-09-02T12:07:29.972Z,17.85
2022-09-02T12:11:06.907Z,18.01
2022-09-02T12:14:35.963Z,18.35
2022-09-02T12:18:12.610Z,17.92
2022-09-02T12:21:23.346Z,18.03
2022-09-02T12:24:29.262Z,18.25
2022-09-02T12:27:42.831Z,18.00
2022-09-02T12:31:18.104Z,17.80
2022-09-02T12:34:59.532Z,18.04
2022-09-02T12:38:29.715Z,18.86
2022-09-02T12:41:47.740Z,19.39
2022-09-02T12:45:13.134Z,20.57
2022-09-02T12:48:38.538Z,20.59
2022-09-02T12:52:02.789Z,20.87
2022-09-02T12:55:21.705Z,20.65
2022-09-02T12:58:29.705Z,20.19
2022-09-02T13:05:40.532Z,20.12
2022-09-02T13:09:34.578Z,19.70
2022-09-02T13:13:28.614Z,19.25
2022-09-02T13:16:51.819Z,18.93
2022-09-02T13:20:44.710Z,18.55
2022-09-02T13:24:40.886Z,18.51
2022-09-02T13:28:39.171Z,18.23
2022-09-02T13:32:05.272Z,18.16
2022-09-02T13:35:24.038Z,17.98
2022-09-02T13:38:33.589Z,17.95
2022-09-02T13:41:39.137Z,17.87
2022-09-02T13:44:44.745Z,18.02
2022-09-02T13:47:58.139Z,18.20
2022-09-02T13:51:16.412Z,18.29
2022-09-02T13:54:35.206Z,18.34
2022-09-02T13:57:41.935Z,18.27
2022-09-02T14:00:49.844Z,17.90
2022-09-02T14:04:02.097Z,18.11
2022-09-02T14:07:12.003Z,18.14
2022-09-02T14:10:23.510Z,18.46
2022-09-02T14:13:29.697Z,18.48
2022-09-02T14:16:39.281Z,18.61
2022-09-02T14:19:49.155Z,18.51
2022-09-02T14:23:10.917Z,18.16
2022-09-02T14:26:31.768Z,18.08
2022-09-02T14:29:48.602Z,17.97
2022-09-02T14:33:39.644Z,17.90
2022-09-02T14:36:45.478Z,17.72
2022-09-02T14:40:11.737Z,17.52
2022-09-02T14:43:20.390Z,17.50
2022-09-02T14:46:37.370Z,17.38
2022-09-02T14:49:55.745Z,17.12
2022-09-02T14:53:14.661Z,17.06
2022-09-02T14:56:48.778Z,17.21
2022-09-02T14:59:56.193Z,17.54
2022-09-02T15:03:02.406Z,17.51
2022-09-02T15:06:17.722Z,17.64
2022-09-02T15:09:31.705Z,17.35
2022-09-02T15:12:45.670Z,17.27
2022-09-02T15:15:53.180Z,17.13
2022-09-02T15:18:59.553Z,17.18
2022-09-02T15:22:14.255Z,17.09
2022-09-02T15:25:32.216Z,16.95
2022-09-02T15:28:41.139Z,16.89
2022-09-02T15:31:46.677Z,16.96
2022-09-02T15:34:52.407Z,16.83
2022-09-02T15:38:08.817Z,16.91
2022-09-02T15:41:17.947Z,17.02
2022-09-02T15:44:26.709Z,17.13
2022-09-02T15:47:32.651Z,16.94
2022-09-02T15:50:38.258Z,16.91
2022-09-02T15:53:49.297Z,16.99
2022-09-02T15:57:00.339Z,16.93
2022-09-02T16:00:11.505Z,16.97
2022-09-02T16:03:25.808Z,16.90
2022-09-02T16:06:32.085Z,16.82
2022-09-02T16:09:40.435Z,16.81
2022-09-02T16:12:46.063Z,16.97
2022-09-02T16:15:53.981Z,16.79
2022-09-02T16:19:00.183Z,16.77
2022-09-02T16:22:05.908Z,16.60
2022-09-02T16:25:15.786Z,16.52
2022-09-02T16:28:22.285Z,16.50
2022-09-02T16:31:31.962Z,16.54
2022-09-02T16:34:37.579Z,16.48
2022-09-02T16:37:43.135Z,16.43
2022-09-02T16:40:57.730Z,16.43
2022-09-02T16:44:11.922Z,16.42
2022-09-02T16:47:17.509Z,16.40
2022-09-02T16:50:23.570Z,16.41
2022-09-02T16:53:29.349Z,16.28
2022-09-02T16:56:43.420Z,16.24
2022-09-02T16:59:49.633Z,16.24
2022-09-02T17:02:55.292Z,16.20
2022-09-02T17:06:01.693Z,16.21
2022-09-02T17:09:09.199Z,16.03
2022-09-02T17:12:28.434Z,15.83
2022-09-02T17:15:36.803Z,15.73
2022-09-02T17:18:42.369Z,15.52
2022-09-02T17:21:51.179Z,15.31
2022-09-02T17:24:56.758Z,15.26
2022-09-02T17:28:05.813Z,15.13
2022-09-02T17:31:22.048Z,15.05
2022-09-02T17:34:27.802Z,14.99
2022-09-02T17:37:37.592Z,14.88
2022-09-02T17:40:55.685Z,14.95
2022-09-02T17:44:08.277Z,14.98
2022-09-02T17:47:20.229Z,14.97
2022-09-02T17:50:29.295Z,14.85
2022-09-02T17:53:36.363Z,14.80
2022-09-02T17:57:23.862Z,14.77
2022-09-02T18:00:32.376Z,14.77
2022-09-02T18:04:07.778Z,14.64
2022-09-02T18:07:34.275Z,14.74
2022-09-02T18:10:58.065Z,14.70
2022-09-02T18:14:25.673Z,14.64
2022-09-02T18:17:40.045Z,14.51
2022-09-02T18:20:56.813Z,14.46
2022-09-02T18:24:27.870Z,14.35
2022-09-02T18:27:53.711Z,14.24
2022-09-02T18:31:23.412Z,13.97
2022-09-02T18:34:57.750Z,13.89
2022-09-02T18:38:17.058Z,13.83
2022-09-02T18:41:52.370Z,13.95
2022-09-02T18:45:12.693Z,13.91
2022-09-02T18:48:27.585Z,13.96
2022-09-02T18:51:49.395Z,13.92
2022-09-02T18:55:15.374Z,13.89
2022-09-02T18:58:39.297Z,13.76
2022-09-02T19:01:56.588Z,13.71
2022-09-02T19:05:07.372Z,13.67
2022-09-02T19:08:40.630Z,13.63
2022-09-02T19:11:48.410Z,13.51
2022-09-02T19:14:54.339Z,13.42
2022-09-02T19:18:20.853Z,13.41
2022-09-02T19:22:04.821Z,13.33
2022-09-02T19:25:29.214Z,13.29
2022-09-02T19:28:35.301Z,13.30
2022-09-02T19:31:46.863Z,13.26
2022-09-02T19:34:53.144Z,13.23
2022-09-02T19:37:59.603Z,13.20
2022-09-02T19:41:08.191Z,13.20
2022-09-02T19:44:15.743Z,13.16
2022-09-02T19:48:05.023Z,13.18
2022-09-02T19:50:51.109Z,13.09
2022-09-02T19:53:57.354Z,12.98
2022-09-02T19:57:05.721Z,12.98
2022-09-02T20:00:15.611Z,12.87
2022-09-02T20:03:22.809Z,12.79
2022-09-02T20:06:30.009Z,12.75
2022-09-02T20:09:35.739Z,12.78
2022-09-02T20:12:51.075Z,12.74
2022-09-02T20:16:00.278Z,12.68
2022-09-02T20:19:06.104Z,12.54
2022-09-02T20:22:14.331Z,12.56
2022-09-02T20:25:20.099Z,12.48
2022-09-02T20:28:36.821Z,12.42
2022-09-02T20:32:09.119Z,12.34
2022-09-02T20:35:53.491Z,12.25
2022-09-02T20:39:35.316Z,12.24
2022-09-02T20:43:38.147Z,12.18
2022-09-02T20:47:16.605Z,12.10
2022-09-02T20:50:50.620Z,12.10
2022-09-02T20:54:20.138Z,12.10
2022-09-02T20:58:13.682Z,12.08
2022-09-02T21:01:31.151Z,12.01
2022-09-02T21:04:45.016Z,12.05
2022-09-02T21:08:02.726Z,12.07
2022-09-02T21:11:14.597Z,12.06
2022-09-02T21:14:31.155Z,12.07
2022-09-02T21:17:52.509Z,12.03
2022-09-02T21:21:09.851Z,11.98
2022-09-02T21:24:26.349Z,11.89
2022-09-02T21:27:45.467Z,11.79
2022-09-02T21:31:05.143Z,11.71
2022-09-02T21:34:27.790Z,11.56
2022-09-02T21:37:39.926Z,11.59
2022-09-02T21:41:07.009Z,11.52
2022-09-02T21:44:26.161Z,11.38
2022-09-02T21:47:44.181Z,11.35
2022-09-02T21:51:05.043Z,11.30
2022-09-02T21:54:44.575Z,11.33
2022-09-02T21:58:17.933Z,11.29
2022-09-02T22:01:44.558Z,11.24
2022-09-02T22:05:10.534Z,11.25
2022-09-02T22:08:34.183Z,11.26
2022-09-02T22:11:48.957Z,11.17
2022-09-02T22:15:08.001Z,11.11
2022-09-02T22:18:33.645Z,11.05
2022-09-02T22:21:49.988Z,11.00
2022-09-02T22:24:58.572Z,10.93
2022-09-02T22:28:16.045Z,10.84
2022-09-02T22:31:28.696Z,10.89
2022-09-02T22:34:46.384Z,10.92
2022-09-02T22:38:06.228Z,10.91
2022-09-02T22:41:29.251Z,10.78
2022-09-02T22:44:59.291Z,10.66
2022-09-02T22:48:30.857Z,10.58
2022-09-02T22:52:03.160Z,10.48
2022-09-02T22:55:11.374Z,10.45
2022-09-02T22:58:48.906Z,10.42
2022-09-02T23:02:11.441Z,10.44
2022-09-02T23:05:53.303Z,10.41
2022-09-02T23:09:08.670Z,10.40
2022-09-02T23:12:34.485Z,10.39
2022-09-02T23:16:02.369Z,10.38
2022-09-02T23:19:25.986Z,10.33
2022-09-02T23:22:51.683Z,10.39
2022-09-02T23:26:21.067Z,10.33
2022-09-02T23:29:28.923Z,10.30
2022-09-02T23:33:10.965Z,10.29
2022-09-02T23:36:35.526Z,10.20
2022-09-02T23:40:06.219Z,10.17
2022-09-02T23:43:15.736Z,10.17
2022-09-02T23:46:43.952Z,10.15
2022-09-02T23:50:11.604Z,10.17
2022-09-02T23:53:27.604Z,10.13
2022-09-02T23:56:58.283Z,10.10
